createdAt,value
2022-12-20T00:01:58.275Z,10.00
2022-12-20T00:05:01.768Z,9.85
2022-12-20T00:08:05.349Z,8.60
2022-12-20T00:11:10.137Z,9.67
2022-12-20T00:14:13.634Z,8.75
2022-12-20T00:17:16.994Z,9.93
2022-12-20T00:20:20.451Z,8.83
2022-12-20T00:23:23.818Z,9.63
2022-12-20T00:26:30.889Z,8.55
2022-12-20T00:29:35.259Z,8.88
2022-12-20T00:32:38.657Z,9.20
2022-12-20T00:35:44.829Z,9.25
2022-12-20T00:38:49.730Z,9.40
2022-12-20T00:41:53.121Z,9.10
2022-12-20T00:44:56.425Z,9.10
2022-12-20T00:47:59.754Z,10.25
2022-12-20T00:51:15.079Z,9.60
2022-12-20T00:54:18.547Z,9.15
2022-12-20T00:57:21.917Z,8.90
2022-12-20T01:00:25.518Z,9.73
2022-12-20T01:03:29.879Z,9.80
2022-12-20T01:06:34.274Z,10.30
2022-12-20T01:09:37.759Z,10.65
2022-12-20T01:12:41.187Z,10.20
2022-12-20T01:15:44.476Z,10.00
2022-12-20T01:18:49.109Z,10.40
2022-12-20T01:21:54.061Z,10.80
2022-12-20T01:24:57.533Z,10.88
2022-12-20T01:28:00.884Z,10.18
2022-12-20T01:31:12.193Z,10.02
2022-12-20T01:34:15.748Z,10.17
2022-12-20T01:37:19.035Z,10.10
2022-12-20T01:40:22.403Z,10.80
2022-12-20T01:43:45.024Z,9.90
2022-12-20T01:46:50.383Z,9.63
2022-12-20T01:49:56.879Z,10.43
2022-12-20T01:53:02.417Z,10.15
2022-12-20T01:56:07.887Z,9.47
2022-12-20T01:59:13.048Z,10.60
2022-12-20T02:02:17.435Z,10.80
2022-12-20T02:05:23.589Z,10.57
2022-12-20T02:08:27.223Z,9.93
2022-12-20T02:12:20.677Z,10.73
2022-12-20T02:15:52.022Z,9.73
2022-12-20T02:19:19.633Z,10.20
2022-12-20T02:22:31.662Z,10.48
2022-12-20T02:26:29.139Z,9.65
2022-12-20T02:29:45.565Z,9.00
2022-12-20T02:33:07.500Z,10.77
2022-12-20T02:36:10.894Z,10.35
2022-12-20T02:39:17.780Z,10.97
2022-12-20T02:42:26.957Z,10.80
2022-12-20T02:45:36.811Z,10.80
2022-12-20T02:48:42.104Z,10.73
2022-12-20T02:51:49.215Z,10.75
2022-12-20T02:54:54.444Z,10.90
2022-12-20T02:58:10.106Z,11.32
2022-12-20T03:01:22.928Z,10.87
2022-12-20T03:04:29.482Z,10.63
2022-12-20T03:07:34.805Z,10.32
2022-12-20T03:10:38.572Z,10.37
2022-12-20T03:13:42.275Z,10.07
2022-12-20T03:16:46.114Z,10.07
2022-12-20T03:19:49.753Z,11.27
2022-12-20T03:22:53.227Z,9.27
2022-12-20T03:25:56.720Z,10.35
2022-12-20T03:29:32.208Z,11.23
2022-12-20T03:32:36.127Z,10.80
2022-12-20T03:35:39.849Z,11.93
2022-12-20T03:38:43.321Z,10.82
2022-12-20T03:41:46.900Z,11.45
2022-12-20T03:44:54.270Z,11.43
2022-12-20T03:47:59.789Z,10.20
2022-12-20T03:51:06.134Z,10.23
2022-12-20T03:54:09.877Z,11.30
2022-12-20T03:57:31.644Z,10.52
2022-12-20T04:00:36.104Z,12.18
2022-12-20T04:03:59.529Z,11.25
2022-12-20T04:07:04.012Z,12.07
2022-12-20T04:10:09.270Z,10.05
2022-12-20T04:13:12.666Z,12.13
2022-12-20T04:16:18.239Z,11.18
2022-12-20T04:19:22.318Z,9.90
2022-12-20T04:22:26.133Z,11.77
2022-12-20T04:25:36.661Z,11.45
2022-12-20T04:28:40.963Z,11.33
2022-12-20T04:31:47.056Z,10.95
2022-12-20T04:34:51.179Z,10.90
2022-12-20T04:37:55.227Z,12.23
2022-12-20T04:40:59.052Z,11.02
2022-12-20T04:44:06.197Z,12.32
2022-12-20T04:47:12.913Z,11.25
2022-12-20T04:50:19.233Z,11.60
2022-12-20T04:53:42.765Z,10.73
2022-12-20T04:56:47.085Z,11.20
2022-12-20T04:59:56.209Z,11.52
2022-12-20T05:03:00.548Z,10.68
2022-12-20T05:06:04.988Z,11.70
2022-12-20T05:09:09.485Z,11.45
2022-12-20T05:12:13.135Z,11.50
2022-12-20T05:15:16.708Z,11.43
2022-12-20T05:18:21.724Z,10.57
2022-12-20T05:21:52.280Z,10.48
2022-12-20T05:25:14.088Z,11.97
2022-12-20T05:28:18.826Z,11.68
2022-12-20T05:31:22.434Z,11.95
2022-12-20T05:34:26.298Z,12.20
2022-12-20T05:37:31.816Z,10.48
2022-12-20T05:40:42.948Z,11.88
2022-12-20T05:43:48.003Z,11.48
2022-12-20T05:46:51.953Z,11.93
2022-12-20T05:50:02.436Z,11.55
2022-12-20T05:53:12.045Z,12.05
2022-12-20T05:56:22.031Z,11.00
2022-12-20T05:59:25.688Z,11.93
2022-12-20T06:02:29.498Z,12.40
2022-12-20T06:05:39.565Z,11.65
2022-12-20T06:08:43.090Z,12.55
2022-12-20T06:11:52.499Z,11.13
2022-12-20T06:14:55.996Z,13.38
2022-12-20T06:17:59.494Z,11.88
2022-12-20T06:21:03.192Z,11.43
2022-12-20T06:24:07.990Z,12.50
2022-12-20T06:27:14.184Z,11.95
2022-12-20T06:30:19.068Z,11.82
2022-12-20T06:33:35.896Z,11.40
2022-12-20T06:36:40.345Z,11.98
2022-12-20T06:39:46.809Z,11.60
2022-12-20T06:42:51.261Z,12.30
2022-12-20T06:45:57.746Z,12.45
2022-12-20T06:49:01.682Z,12.40
2022-12-20T06:52:05.709Z,12.88
2022-12-20T06:55:18.522Z,11.20
2022-12-20T06:58:23.368Z,12.98
2022-12-20T07:01:28.003Z,12.15
2022-12-20T07:04:32.567Z,12.48
2022-12-20T07:07:42.782Z,12.90
2022-12-20T07:10:50.530Z,12.10
2022-12-20T07:13:59.985Z,11.50
2022-12-20T07:17:04.330Z,11.60
2022-12-20T07:20:13.273Z,13.10
2022-12-20T07:23:19.029Z,12.60
2022-12-20T07:26:22.998Z,11.57
2022-12-20T07:29:26.534Z,11.73
2022-12-20T07:32:30.166Z,12.30
2022-12-20T07:35:33.540Z,11.90
2022-12-20T07:38:37.834Z,10.90
2022-12-20T07:41:41.210Z,12.25
2022-12-20T07:44:51.161Z,11.25
2022-12-20T07:47:57.291Z,12.15
2022-12-20T07:51:07.541Z,12.10
2022-12-20T07:54:16.294Z,11.63
2022-12-20T07:57:25.757Z,10.38
2022-12-20T08:00:30.059Z,10.65
2022-12-20T08:03:41.470Z,12.02
2022-12-20T08:06:45.297Z,11.90
2022-12-20T08:09:51.116Z,11.25
2022-12-20T08:12:55.312Z,10.88
2022-12-20T08:16:01.899Z,11.82
2022-12-20T08:19:05.421Z,11.60
2022-12-20T08:22:08.857Z,11.50
2022-12-20T08:25:12.260Z,12.95
2022-12-20T08:28:15.805Z,10.98
2022-12-20T08:31:29.862Z,11.70
2022-12-20T08:34:34.116Z,11.63
2022-12-20T08:37:37.520Z,11.70
2022-12-20T08:40:43.740Z,12.45
2022-12-20T08:43:47.452Z,11.73
2022-12-20T08:46:51.330Z,12.93
2022-12-20T08:49:54.813Z,13.52
2022-12-20T08:52:58.473Z,11.50
2022-12-20T08:56:11.733Z,12.77
2022-12-20T08:59:17.570Z,11.60
2022-12-20T09:02:24.975Z,12.15
2022-12-20T09:05:28.451Z,10.02
2022-12-20T09:08:31.863Z,11.95
2022-12-20T09:11:37.076Z,12.43
2022-12-20T09:14:41.267Z,10.98
2022-12-20T09:17:45.307Z,12.77
2022-12-20T09:20:49.155Z,12.85
2022-12-20T09:23:54.745Z,10.73
2022-12-20T09:26:58.381Z,10.70
2022-12-20T09:30:02.424Z,11.23
2022-12-20T09:33:10.115Z,9.93
2022-12-20T09:36:17.455Z,10.57
2022-12-20T09:39:21.189Z,11.23
2022-12-20T09:42:29.276Z,10.20
2022-12-20T09:45:37.462Z,10.55
2022-12-20T09:48:42.494Z,11.63
2022-12-20T09:51:58.114Z,11.25
2022-12-20T10:11:55.195Z,8.13
2022-12-20T10:15:21.004Z,9.55
2022-12-20T10:18:54.177Z,10.00
2022-12-20T10:22:05.726Z,9.93
2022-12-20T10:25:35.492Z,10.07
2022-12-20T10:28:41.229Z,8.45
2022-12-20T10:31:44.824Z,9.45
2022-12-20T10:34:57.951Z,9.88
2022-12-20T10:38:12.975Z,9.32
2022-12-20T10:41:22.230Z,8.93
2022-12-20T10:44:28.971Z,9.93
2022-12-20T10:47:43.418Z,8.30
2022-12-20T10:51:17.236Z,9.48
2022-12-20T10:54:28.548Z,8.70
2022-12-20T10:57:33.679Z,8.60
2022-12-20T11:00:43.110Z,9.27
2022-12-20T11:04:03.095Z,7.32
2022-12-20T11:07:26.369Z,8.05
2022-12-20T11:10:31.119Z,7.25
2022-12-20T11:13:34.966Z,7.83
2022-12-20T11:16:40.418Z,7.68
2022-12-20T11:20:08.473Z,7.68
2022-12-20T11:24:08.583Z,7.78
2022-12-20T11:27:34.244Z,7.55
2022-12-20T11:31:06.514Z,7.63
2022-12-20T11:34:35.298Z,7.85
2022-12-20T11:37:57.599Z,8.57
2022-12-20T11:41:33.128Z,8.48
2022-12-20T11:44:58.010Z,8.55
2022-12-20T11:48:38.088Z,8.33
2022-12-20T11:51:47.090Z,8.43
2022-12-20T11:55:04.703Z,7.93
2022-12-20T11:58:34.901Z,7.47
2022-12-20T12:02:16.363Z,7.03
2022-12-20T12:05:26.904Z,6.77
2022-12-20T12:08:54.796Z,8.25
2022-12-20T12:12:25.402Z,7.97
2022-12-20T12:16:05.692Z,8.80
2022-12-20T12:19:15.833Z,6.65
2022-12-20T12:22:30.498Z,7.57
2022-12-20T12:25:34.451Z,8.60
2022-12-20T12:28:38.691Z,7.03
2022-12-20T12:32:10.494Z,7.75
2022-12-20T12:35:42.237Z,7.15
2022-12-20T12:39:02.148Z,6.63
2022-12-20T12:42:22.291Z,8.02
2022-12-20T12:45:53.328Z,7.95
2022-12-20T12:49:12.596Z,8.60
2022-12-20T12:52:52.103Z,9.23
2022-12-20T12:56:12.716Z,8.80
2022-12-20T12:59:22.696Z,8.77
2022-12-20T13:02:34.626Z,9.90
2022-12-20T13:05:38.396Z,10.48
2022-12-20T13:08:58.422Z,10.40
2022-12-20T13:12:45.219Z,11.00
2022-12-20T13:15:51.355Z,10.77
2022-12-20T13:19:04.391Z,9.90
2022-12-20T13:22:17.142Z,11.18
2022-12-20T13:25:30.229Z,10.60
2022-12-20T13:28:33.836Z,9.33
2022-12-20T13:31:37.734Z,10.73
2022-12-20T13:35:04.379Z,9.57
2022-12-20T13:38:32.493Z,11.20
2022-12-20T13:41:47.855Z,10.77
2022-12-20T13:44:53.184Z,8.63
2022-12-20T13:48:10.828Z,9.13
2022-12-20T13:51:27.217Z,9.10
2022-12-20T13:54:30.922Z,10.43
2022-12-20T13:57:43.730Z,11.30
2022-12-20T14:00:50.409Z,9.33
2022-12-20T14:03:55.698Z,10.07
2022-12-20T14:07:02.260Z,11.75
2022-12-20T14:10:21.037Z,12.35
2022-12-20T14:13:28.325Z,9.07
2022-12-20T14:16:33.415Z,12.33
2022-12-20T14:19:37.175Z,14.50
2022-12-20T14:23:12.265Z,13.35
2022-12-20T14:26:25.503Z,12.27
2022-12-20T14:29:31.738Z,13.85
2022-12-20T14:32:35.288Z,14.97
2022-12-20T14:35:52.255Z,15.07
2022-12-20T14:38:55.831Z,16.58
2022-12-20T14:42:08.410Z,17.10
2022-12-20T14:45:14.967Z,14.98
2022-12-20T14:48:18.900Z,13.13
2022-12-20T14:51:23.752Z,28.95
2022-12-20T14:57:57.933Z,32.45
2022-12-20T15:01:22.906Z,40.10
2022-12-20T15:04:34.724Z,29.33
2022-12-20T15:07:41.976Z,43.00
2022-12-20T15:11:03.936Z,48.88
2022-12-20T15:14:38.451Z,40.58
2022-12-20T15:17:44.321Z,38.08
2022-12-20T15:21:01.979Z,34.97
2022-12-20T15:24:10.333Z,32.28
2022-12-20T15:27:15.195Z,28.17
2022-12-20T15:30:19.470Z,30.08
2022-12-20T15:33:31.528Z,27.17
2022-12-20T15:36:35.013Z,20.60
2022-12-20T15:39:38.709Z,18.95
2022-12-20T15:42:43.915Z,25.30
2022-12-20T15:45:50.549Z,25.90
2022-12-20T15:48:54.614Z,15.13
2022-12-20T15:51:58.666Z,15.25
2022-12-20T15:55:02.337Z,15.13
2022-12-20T15:58:05.803Z,32.38
2022-12-20T16:01:16.205Z,24.85
2022-12-20T16:04:20.931Z,18.73
2022-12-20T16:07:24.779Z,18.17
2022-12-20T16:10:30.871Z,27.92
2022-12-20T16:13:35.442Z,22.45
2022-12-20T16:16:38.976Z,18.10
2022-12-20T16:19:43.920Z,14.23
2022-12-20T16:22:47.476Z,26.75
2022-12-20T16:25:51.667Z,30.88
2022-12-20T16:28:56.709Z,26.35
2022-12-20T16:32:00.305Z,19.27
2022-12-20T16:35:04.052Z,24.42
2022-12-20T16:38:07.683Z,20.35
2022-12-20T16:41:19.949Z,18.35
2022-12-20T16:44:23.473Z,19.65
2022-12-20T16:47:27.198Z,25.57
2022-12-20T16:50:33.891Z,20.00
2022-12-20T16:54:02.320Z,19.20
2022-12-20T16:57:01.706Z,18.88
2022-12-20T17:00:06.969Z,20.83
2022-12-20T17:03:10.746Z,21.40
2022-12-20T17:06:15.719Z,21.60
2022-12-20T17:09:20.427Z,22.13
2022-12-20T17:12:24.229Z,24.15
2022-12-20T17:15:30.466Z,21.90
2022-12-20T17:18:34.027Z,18.88
2022-12-20T17:25:03.269Z,20.60
2022-12-20T17:28:06.766Z,23.73
2022-12-20T17:31:27.182Z,23.75
2022-12-20T17:34:31.291Z,21.65
2022-12-20T17:37:35.369Z,21.35
2022-12-20T17:40:38.809Z,25.75
2022-12-20T17:43:42.357Z,22.53
2022-12-20T17:46:46.137Z,30.40
2022-12-20T17:49:49.605Z,48.72
2022-12-20T17:52:54.560Z,37.10
2022-12-20T17:55:58.103Z,23.80
2022-12-20T17:59:02.963Z,28.70
2022-12-20T18:02:22.784Z,24.45
2022-12-20T18:05:26.617Z,26.30
2022-12-20T18:08:30.411Z,23.30
2022-12-20T18:11:33.977Z,23.30
2022-12-20T18:14:37.601Z,25.90
2022-12-20T18:17:41.605Z,28.38
2022-12-20T18:20:45.587Z,28.58
2022-12-20T18:23:49.726Z,27.45
2022-12-20T18:26:53.437Z,26.50
2022-12-20T18:29:56.974Z,26.33
2022-12-20T18:33:00.491Z,37.22
2022-12-20T18:36:11.752Z,33.53
2022-12-20T18:39:15.804Z,26.08
2022-12-20T18:42:19.536Z,30.83
2022-12-20T18:45:23.000Z,32.22
2022-12-20T18:48:26.602Z,30.15
2022-12-20T18:51:33.286Z,26.33
2022-12-20T18:54:36.853Z,30.85
2022-12-20T18:57:40.521Z,31.87
2022-12-20T19:00:44.360Z,35.92
2022-12-20T19:03:48.410Z,33.58
2022-12-20T19:06:52.711Z,29.88
2022-12-20T19:09:56.515Z,29.17
2022-12-20T19:13:05.488Z,27.47
2022-12-20T19:16:13.655Z,26.35
2022-12-20T19:19:17.807Z,25.40
2022-12-20T19:22:21.421Z,26.85
2022-12-20T19:25:24.987Z,27.35
2022-12-20T19:28:28.718Z,28.27
2022-12-20T19:31:34.556Z,24.13
2022-12-20T19:34:38.232Z,23.30
2022-12-20T19:37:41.694Z,24.52
2022-12-20T19:40:53.466Z,23.40
2022-12-20T19:43:57.854Z,21.73
2022-12-20T19:47:07.466Z,21.20
2022-12-20T19:50:11.368Z,21.65
2022-12-20T19:53:15.344Z,22.17
2022-12-20T19:56:22.914Z,24.63
2022-12-20T19:59:26.742Z,31.27
2022-12-20T20:02:30.582Z,27.63
2022-12-20T20:05:35.728Z,28.38
2022-12-20T20:08:39.985Z,27.50
2022-12-20T20:11:43.675Z,28.25
2022-12-20T20:14:47.410Z,31.83
2022-12-20T20:17:51.382Z,37.33
2022-12-20T20:20:55.981Z,47.03
2022-12-20T20:23:59.551Z,45.42
2022-12-20T20:27:03.078Z,30.83
2022-12-20T20:30:07.600Z,26.30
2022-12-20T20:33:12.363Z,21.50
2022-12-20T20:36:20.015Z,23.52
2022-12-20T20:39:23.669Z,22.88
2022-12-20T20:42:27.323Z,24.88
2022-12-20T20:45:30.943Z,28.17
2022-12-20T20:48:35.408Z,25.50
2022-12-20T20:51:38.924Z,24.35
2022-12-20T20:54:42.514Z,21.05
2022-12-20T20:57:46.087Z,19.93
2022-12-20T21:00:52.323Z,20.85
2022-12-20T21:03:57.430Z,26.40
2022-12-20T21:07:00.882Z,26.80
2022-12-20T21:10:05.462Z,30.73
2022-12-20T21:13:09.933Z,25.65
2022-12-20T21:16:20.742Z,24.70
2022-12-20T21:19:24.717Z,27.60
2022-12-20T21:22:28.232Z,28.55
2022-12-20T21:25:32.078Z,24.73
2022-12-20T21:28:36.015Z,24.23
2022-12-20T21:31:39.569Z,27.35
2022-12-20T21:34:43.102Z,29.00
2022-12-20T21:37:46.632Z,30.03
2022-12-20T21:40:50.093Z,21.90
2022-12-20T21:43:57.227Z,44.85
2022-12-20T21:47:00.798Z,30.58
2022-12-20T21:50:05.181Z,24.40
2022-12-20T21:53:12.785Z,20.88
2022-12-20T21:56:20.541Z,20.67
2022-12-20T21:59:24.141Z,22.75
2022-12-20T22:02:28.060Z,22.35
2022-12-20T22:05:31.589Z,20.07
2022-12-20T22:08:35.401Z,21.65
2022-12-20T22:11:39.653Z,21.58
2022-12-20T22:14:43.204Z,21.85
2022-12-20T22:17:46.787Z,23.08
2022-12-20T22:20:50.581Z,22.53
2022-12-20T22:23:55.774Z,21.90
2022-12-20T22:26:59.208Z,22.98
2022-12-20T22:30:02.658Z,23.17
2022-12-20T22:33:06.185Z,21.25
2022-12-20T22:36:11.414Z,20.73
2022-12-20T22:39:15.080Z,19.38
2022-12-20T22:42:19.204Z,21.77
2022-12-20T22:45:22.669Z,20.25
2022-12-20T22:48:26.703Z,21.50
2022-12-20T22:51:33.502Z,21.80
2022-12-20T22:54:37.303Z,20.38
2022-12-20T22:57:40.790Z,25.60
2022-12-20T23:00:44.576Z,23.02
2022-12-20T23:03:48.557Z,22.27
2022-12-20T23:06:52.088Z,22.70
2022-12-20T23:09:56.567Z,23.25
2022-12-20T23:13:18.401Z,25.48
2022-12-20T23:16:47.368Z,25.05
2022-12-20T23:20:09.459Z,25.23
2022-12-20T23:23:12.785Z,25.25
2022-12-20T23:26:17.208Z,25.40
2022-12-20T23:29:20.579Z,27.08
2022-12-20T23:32:24.348Z,28.95
2022-12-20T23:35:27.833Z,26.57
2022-12-20T23:38:33.894Z,27.33
2022-12-20T23:41:37.335Z,29.52
2022-12-20T23:44:40.682Z,27.08
2022-12-20T23:47:44.094Z,25.90
2022-12-20T23:50:56.477Z,26.27
2022-12-20T23:53:59.785Z,24.85
2022-12-20T23:57:03.073Z,29.00
